sensor_id;sensor_type;location;lat;lon;timestamp;temperature;humidity
5196;DHT22;2617;51.006;12.436;2022-12-18T00:00:33;-9.30;99.90
5196;DHT22;2617;51.006;12.436;2022-12-18T00:05:36;-9.40;99.90
5196;DHT22;2617;51.006;12.436;2022-12-18T00:10:38;-9.50;99.90
5196;DHT22;2617;51.006;12.436;2022-12-18T00:15:40;-9.50;99.90
5196;DHT22;2617;51.006;12.436;2022-12-18T00:20:42;-9.50;99.90
5196;DHT22;2617;51.006;12.436;2022-12-18T00:25:43;-9.60;99.90
5196;DHT22;2617;51.006;12.436;2022-12-18T00:30:45;-9.60;99.90
5196;DHT22;2617;51.006;12.436;2022-12-18T00:35:47;-9.70;99.90
5196;DHT22;2617;51.006;12.436;2022-12-18T00:40:49;-9.80;99.90
5196;DHT22;2617;51.006;12.436;2022-12-18T00:45:51;-9.80;99.90
5196;DHT22;2617;51.006;12.436;2022-12-18T00:50:53;-9.80;99.90
5196;DHT22;2617;51.006;12.436;2022-12-18T00:55:55;-9.90;99.90
5196;DHT22;2617;51.006;12.436;2022-12-18T01:00:56;-9.90;99.90
5196;DHT22;2617;51.006;12.436;2022-12-18T01:05:58;-10.00;99.90
5196;DHT22;2617;51.006;12.436;2022-12-18T01:11:06;-10.10;99.90
5196;DHT22;2617;51.006;12.436;2022-12-18T01:16:03;-10.10;99.90
5196;DHT22;2617;51.006;12.436;2022-12-18T01:21:07;-10.10;99.90
5196;DHT22;2617;51.006;12.436;2022-12-18T01:26:11;-10.00;99.90
5196;DHT22;2617;51.006;12.436;2022-12-18T01:31:18;-9.80;99.90
5196;DHT22;2617;51.006;12.436;2022-12-18T01:36:23;-9.80;99.90
5196;DHT22;2617;51.006;12.436;2022-12-18T01:41:25;-9.70;99.90
5196;DHT22;2617;51.006;12.436;2022-12-18T01:46:26;-9.70;99.90
5196;DHT22;2617;51.006;12.436;2022-12-18T01:51:28;-9.70;99.90
5196;DHT22;2617;51.006;12.436;2022-12-18T01:56:30;-9.80;99.90
5196;DHT22;2617;51.006;12.436;2022-12-18T02:01:31;-9.70;99.90
5196;DHT22;2617;51.006;12.436;2022-12-18T02:06:34;-9.70;99.90
5196;DHT22;2617;51.006;12.436;2022-12-18T02:11:53;-9.70;99.90
5196;DHT22;2617;51.006;12.436;2022-12-18T02:22:20;-9.60;99.90
5196;DHT22;2617;51.006;12.436;2022-12-18T02:27:18;-9.60;99.90
5196;DHT22;2617;51.006;12.436;2022-12-18T02:32:23;-9.60;99.90
5196;DHT22;2617;51.006;12.436;2022-12-18T02:37:23;-9.60;99.90
5196;DHT22;2617;51.006;12.436;2022-12-18T02:42:24;-9.60;99.90
5196;DHT22;2617;51.006;12.436;2022-12-18T02:47:29;-9.70;99.90
5196;DHT22;2617;51.006;12.436;2022-12-18T02:52:49;-9.70;99.90
5196;DHT22;2617;51.006;12.436;2022-12-18T02:57:55;-9.80;99.90
5196;DHT22;2617;51.006;12.436;2022-12-18T03:03:03;-9.80;99.90
5196;DHT22;2617;51.006;12.436;2022-12-18T03:08:07;-9.80;99.90
5196;DHT22;2617;51.006;12.436;2022-12-18T03:13:12;-9.80;99.90
5196;DHT22;2617;51.006;12.436;2022-12-18T03:18:16;-9.80;99.90
5196;DHT22;2617;51.006;12.436;2022-12-18T03:23:16;-9.80;99.90
5196;DHT22;2617;51.006;12.436;2022-12-18T03:28:20;-9.80;99.90
5196;DHT22;2617;51.006;12.436;2022-12-18T03:33:20;-9.80;99.90
5196;DHT22;2617;51.006;12.436;2022-12-18T03:38:22;-9.80;99.90
5196;DHT22;2617;51.006;12.436;2022-12-18T03:43:34;-9.80;99.90
5196;DHT22;2617;51.006;12.436;2022-12-18T03:48:36;-9.90;99.90
5196;DHT22;2617;51.006;12.436;2022-12-18T03:53:38;-9.90;99.90
5196;DHT22;2617;51.006;12.436;2022-12-18T03:58:37;-10.00;99.90
5196;DHT22;2617;51.006;12.436;2022-12-18T04:03:40;-10.10;99.90
5196;DHT22;2617;51.006;12.436;2022-12-18T04:08:42;-10.10;99.90
5196;DHT22;2617;51.006;12.436;2022-12-18T04:13:44;-10.20;99.90
5196;DHT22;2617;51.006;12.436;2022-12-18T04:18:46;-10.20;99.90
5196;DHT22;2617;51.006;12.436;2022-12-18T04:23:47;-10.20;99.90
5196;DHT22;2617;51.006;12.436;2022-12-18T04:28:49;-10.20;99.90
5196;DHT22;2617;51.006;12.436;2022-12-18T04:33:51;-10.20;99.90
5196;DHT22;2617;51.006;12.436;2022-12-18T04:38:53;-10.30;99.90
5196;DHT22;2617;51.006;12.436;2022-12-18T04:43:55;-10.40;99.90
5196;DHT22;2617;51.006;12.436;2022-12-18T04:48:57;-10.40;99.90
5196;DHT22;2617;51.006;12.436;2022-12-18T04:53:59;-10.50;99.90
5196;DHT22;2617;51.006;12.436;2022-12-18T04:59:00;-10.50;99.90
5196;DHT22;2617;51.006;12.436;2022-12-18T05:04:02;-10.40;99.90
5196;DHT22;2617;51.006;12.436;2022-12-18T05:09:04;-10.30;99.90
5196;DHT22;2617;51.006;12.436;2022-12-18T05:14:06;-10.20;99.90
5196;DHT22;2617;51.006;12.436;2022-12-18T05:19:08;-10.20;99.90
5196;DHT22;2617;51.006;12.436;2022-12-18T05:24:11;-10.30;99.90
5196;DHT22;2617;51.006;12.436;2022-12-18T05:29:12;-10.40;99.90
5196;DHT22;2617;51.006;12.436;2022-12-18T05:34:14;-10.40;99.90
5196;DHT22;2617;51.006;12.436;2022-12-18T05:39:16;-10.40;99.90
5196;DHT22;2617;51.006;12.436;2022-12-18T05:44:18;-10.50;99.90
5196;DHT22;2617;51.006;12.436;2022-12-18T05:49:19;-10.50;99.90
5196;DHT22;2617;51.006;12.436;2022-12-18T05:54:21;-10.50;99.90
5196;DHT22;2617;51.006;12.436;2022-12-18T05:59:23;-10.60;99.90
5196;DHT22;2617;51.006;12.436;2022-12-18T06:04:26;-10.70;99.90
5196;DHT22;2617;51.006;12.436;2022-12-18T06:09:28;-10.70;99.90
5196;DHT22;2617;51.006;12.436;2022-12-18T06:14:29;-10.70;99.90
5196;DHT22;2617;51.006;12.436;2022-12-18T06:19:31;-10.70;99.90
5196;DHT22;2617;51.006;12.436;2022-12-18T06:24:32;-10.80;99.90
5196;DHT22;2617;51.006;12.436;2022-12-18T06:29:34;-10.80;99.90
5196;DHT22;2617;51.006;12.436;2022-12-18T06:34:37;-10.90;99.90
5196;DHT22;2617;51.006;12.436;2022-12-18T06:39:39;-10.90;99.90
5196;DHT22;2617;51.006;12.436;2022-12-18T06:44:41;-11.00;99.90
5196;DHT22;2617;51.006;12.436;2022-12-18T06:49:43;-11.00;99.90
5196;DHT22;2617;51.006;12.436;2022-12-18T06:54:44;-11.00;99.90
5196;DHT22;2617;51.006;12.436;2022-12-18T06:59:46;-11.00;99.90
5196;DHT22;2617;51.006;12.436;2022-12-18T07:04:48;-11.00;99.90
5196;DHT22;2617;51.006;12.436;2022-12-18T07:09:51;-11.00;99.90
5196;DHT22;2617;51.006;12.436;2022-12-18T07:14:54;-11.00;99.90
5196;DHT22;2617;51.006;12.436;2022-12-18T07:19:55;-11.00;99.90
5196;DHT22;2617;51.006;12.436;2022-12-18T07:24:58;-11.00;99.90
5196;DHT22;2617;51.006;12.436;2022-12-18T07:29:59;-10.90;99.90
5196;DHT22;2617;51.006;12.436;2022-12-18T07:35:02;-10.70;99.90
5196;DHT22;2617;51.006;12.436;2022-12-18T07:40:04;-10.70;99.90
5196;DHT22;2617;51.006;12.436;2022-12-18T07:45:06;-10.20;99.90
5196;DHT22;2617;51.006;12.436;2022-12-18T07:50:08;-10.00;99.90
5196;DHT22;2617;51.006;12.436;2022-12-18T07:55:10;-10.10;99.90
5196;DHT22;2617;51.006;12.436;2022-12-18T08:00:12;-10.00;99.90
5196;DHT22;2617;51.006;12.436;2022-12-18T08:05:14;-9.90;99.90
5196;DHT22;2617;51.006;12.436;2022-12-18T08:10:16;-9.80;99.90
5196;DHT22;2617;51.006;12.436;2022-12-18T08:15:18;-9.60;99.90
5196;DHT22;2617;51.006;12.436;2022-12-18T08:20:20;-9.60;99.90
5196;DHT22;2617;51.006;12.436;2022-12-18T08:25:22;-9.50;99.90
5196;DHT22;2617;51.006;12.436;2022-12-18T08:30:23;-9.40;99.90
5196;DHT22;2617;51.006;12.436;2022-12-18T08:35:25;-9.30;99.90
5196;DHT22;2617;51.006;12.436;2022-12-18T08:40:28;-9.00;99.90
5196;DHT22;2617;51.006;12.436;2022-12-18T08:45:30;-9.00;99.90
5196;DHT22;2617;51.006;12.436;2022-12-18T08:50:33;-8.90;99.90
5196;DHT22;2617;51.006;12.436;2022-12-18T08:55:35;-8.70;99.90
5196;DHT22;2617;51.006;12.436;2022-12-18T09:00:37;-8.60;99.90
5196;DHT22;2617;51.006;12.436;2022-12-18T09:05:38;-8.50;99.90
5196;DHT22;2617;51.006;12.436;2022-12-18T09:10:43;-8.20;99.90
5196;DHT22;2617;51.006;12.436;2022-12-18T09:15:48;-8.10;99.90
5196;DHT22;2617;51.006;12.436;2022-12-18T09:20:48;-8.10;99.90
5196;DHT22;2617;51.006;12.436;2022-12-18T09:25:50;-7.70;99.90
5196;DHT22;2617;51.006;12.436;2022-12-18T09:30:52;-7.80;99.90
5196;DHT22;2617;51.006;12.436;2022-12-18T09:35:54;-7.60;99.90
5196;DHT22;2617;51.006;12.436;2022-12-18T09:40:59;-7.50;99.90
5196;DHT22;2617;51.006;12.436;2022-12-18T09:46:00;-7.30;99.90
5196;DHT22;2617;51.006;12.436;2022-12-18T09:51:09;-7.00;99.90
5196;DHT22;2617;51.006;12.436;2022-12-18T09:56:10;-7.00;99.90
5196;DHT22;2617;51.006;12.436;2022-12-18T10:01:12;-6.80;99.90
5196;DHT22;2617;51.006;12.436;2022-12-18T10:11:48;-6.30;99.90
5196;DHT22;2617;51.006;12.436;2022-12-18T10:17:13;-6.30;99.90
5196;DHT22;2617;51.006;12.436;2022-12-18T10:27:48;-5.90;99.90
5196;DHT22;2617;51.006;12.436;2022-12-18T10:32:49;-5.70;99.90
5196;DHT22;2617;51.006;12.436;2022-12-18T10:38:03;-5.70;99.90
5196;DHT22;2617;51.006;12.436;2022-12-18T10:43:10;-5.70;99.90
5196;DHT22;2617;51.006;12.436;2022-12-18T10:48:19;-5.50;99.90
5196;DHT22;2617;51.006;12.436;2022-12-18T10:53:23;-5.20;99.90
5196;DHT22;2617;51.006;12.436;2022-12-18T10:58:28;-4.90;99.90
5196;DHT22;2617;51.006;12.436;2022-12-18T11:03:33;-4.70;99.90
5196;DHT22;2617;51.006;12.436;2022-12-18T11:08:33;-4.40;99.90
5196;DHT22;2617;51.006;12.436;2022-12-18T11:13:36;-4.10;99.90
5196;DHT22;2617;51.006;12.436;2022-12-18T11:18:37;-4.10;99.90
5196;DHT22;2617;51.006;12.436;2022-12-18T11:23:53;-4.00;99.90
5196;DHT22;2617;51.006;12.436;2022-12-18T11:29:10;-3.70;99.90
5196;DHT22;2617;51.006;12.436;2022-12-18T11:39:24;-3.50;99.90
5196;DHT22;2617;51.006;12.436;2022-12-18T11:44:26;-3.50;99.90
5196;DHT22;2617;51.006;12.436;2022-12-18T11:49:32;-3.50;99.90
5196;DHT22;2617;51.006;12.436;2022-12-18T11:54:30;-3.50;99.90
5196;DHT22;2617;51.006;12.436;2022-12-18T11:59:38;-3.40;99.90
5196;DHT22;2617;51.006;12.436;2022-12-18T12:04:43;-3.40;99.90
5196;DHT22;2617;51.006;12.436;2022-12-18T12:10:05;-3.20;99.90
5196;DHT22;2617;51.006;12.436;2022-12-18T12:15:06;-3.00;99.90
5196;DHT22;2617;51.006;12.436;2022-12-18T12:20:19;-2.90;99.90
5196;DHT22;2617;51.006;12.436;2022-12-18T12:30:53;-2.90;99.90
5196;DHT22;2617;51.006;12.436;2022-12-18T12:41:05;-2.30;99.90
5196;DHT22;2617;51.006;12.436;2022-12-18T12:46:07;-2.30;99.90
5196;DHT22;2617;51.006;12.436;2022-12-18T12:51:11;-2.20;99.90
5196;DHT22;2617;51.006;12.436;2022-12-18T12:56:11;-2.20;99.90
5196;DHT22;2617;51.006;12.436;2022-12-18T13:01:25;-2.20;99.90
5196;DHT22;2617;51.006;12.436;2022-12-18T13:06:49;-2.50;99.90
5196;DHT22;2617;51.006;12.436;2022-12-18T13:11:48;-2.50;99.90
5196;DHT22;2617;51.006;12.436;2022-12-18T13:22:22;-2.60;99.90
5196;DHT22;2617;51.006;12.436;2022-12-18T13:32:36;-2.90;99.90
5196;DHT22;2617;51.006;12.436;2022-12-18T13:37:40;-3.10;99.90
5196;DHT22;2617;51.006;12.436;2022-12-18T13:42:41;-3.30;99.90
5196;DHT22;2617;51.006;12.436;2022-12-18T13:47:49;-3.90;99.90
5196;DHT22;2617;51.006;12.436;2022-12-18T13:52:52;-4.10;99.90
5196;DHT22;2617;51.006;12.436;2022-12-18T13:58:11;-4.30;99.90
5196;DHT22;2617;51.006;12.436;2022-12-18T14:03:19;-4.30;99.90
5196;DHT22;2617;51.006;12.436;2022-12-18T14:08:19;-4.40;99.90
5196;DHT22;2617;51.006;12.436;2022-12-18T14:13:39;-4.50;99.90
5196;DHT22;2617;51.006;12.436;2022-12-18T14:18:44;-4.60;99.90
5196;DHT22;2617;51.006;12.436;2022-12-18T14:23:44;-4.80;99.90
5196;DHT22;2617;51.006;12.436;2022-12-18T14:28:46;-4.80;99.90
5196;DHT22;2617;51.006;12.436;2022-12-18T14:33:47;-4.80;99.90
5196;DHT22;2617;51.006;12.436;2022-12-18T14:38:52;-5.00;99.90
5196;DHT22;2617;51.006;12.436;2022-12-18T14:43:54;-5.10;99.90
5196;DHT22;2617;51.006;12.436;2022-12-18T14:48:55;-5.30;99.90
5196;DHT22;2617;51.006;12.436;2022-12-18T14:54:01;-5.60;99.90
5196;DHT22;2617;51.006;12.436;2022-12-18T14:59:04;-5.60;99.90
5196;DHT22;2617;51.006;12.436;2022-12-18T15:04:19;-5.70;99.90
5196;DHT22;2617;51.006;12.436;2022-12-18T15:09:21;-6.00;99.90
5196;DHT22;2617;51.006;12.436;2022-12-18T15:19:39;-6.10;99.90
5196;DHT22;2617;51.006;12.436;2022-12-18T15:24:41;-6.20;99.90
5196;DHT22;2617;51.006;12.436;2022-12-18T15:29:43;-6.20;99.90
5196;DHT22;2617;51.006;12.436;2022-12-18T15:34:45;-6.20;99.90
5196;DHT22;2617;51.006;12.436;2022-12-18T15:39:46;-6.20;99.90
5196;DHT22;2617;51.006;12.436;2022-12-18T15:44:49;-6.30;99.90
5196;DHT22;2617;51.006;12.436;2022-12-18T15:49:51;-6.30;99.90
5196;DHT22;2617;51.006;12.436;2022-12-18T15:54:52;-6.40;99.90
5196;DHT22;2617;51.006;12.436;2022-12-18T16:00:00;-6.50;99.90
5196;DHT22;2617;51.006;12.436;2022-12-18T16:05:03;-6.50;99.90
5196;DHT22;2617;51.006;12.436;2022-12-18T16:10:05;-6.50;99.90
5196;DHT22;2617;51.006;12.436;2022-12-18T16:15:07;-6.60;99.90
5196;DHT22;2617;51.006;12.436;2022-12-18T16:20:16;-6.70;99.90
5196;DHT22;2617;51.006;12.436;2022-12-18T16:25:20;-6.80;99.90
5196;DHT22;2617;51.006;12.436;2022-12-18T16:30:22;-6.80;99.90
5196;DHT22;2617;51.006;12.436;2022-12-18T16:35:23;-6.90;99.90
5196;DHT22;2617;51.006;12.436;2022-12-18T16:40:25;-6.90;99.90
5196;DHT22;2617;51.006;12.436;2022-12-18T16:45:26;-7.00;99.90
5196;DHT22;2617;51.006;12.436;2022-12-18T16:50:28;-7.10;99.90
5196;DHT22;2617;51.006;12.436;2022-12-18T16:55:30;-7.10;99.90
5196;DHT22;2617;51.006;12.436;2022-12-18T17:00:31;-7.20;99.90
5196;DHT22;2617;51.006;12.436;2022-12-18T17:05:34;-7.20;99.90
5196;DHT22;2617;51.006;12.436;2022-12-18T17:10:37;-7.20;99.90
5196;DHT22;2617;51.006;12.436;2022-12-18T17:15:38;-7.20;99.90
5196;DHT22;2617;51.006;12.436;2022-12-18T17:20:40;-7.20;99.90
5196;DHT22;2617;51.006;12.436;2022-12-18T17:25:42;-7.20;99.90
5196;DHT22;2617;51.006;12.436;2022-12-18T17:30:44;-7.10;99.90
5196;DHT22;2617;51.006;12.436;2022-12-18T17:35:45;-7.10;99.90
5196;DHT22;2617;51.006;12.436;2022-12-18T17:40:48;-6.90;99.90
5196;DHT22;2617;51.006;12.436;2022-12-18T17:45:50;-6.90;99.90
5196;DHT22;2617;51.006;12.436;2022-12-18T17:50:51;-6.80;99.90
5196;DHT22;2617;51.006;12.436;2022-12-18T17:55:54;-6.70;99.90
5196;DHT22;2617;51.006;12.436;2022-12-18T18:00:56;-6.60;99.90
5196;DHT22;2617;51.006;12.436;2022-12-18T18:05:58;-6.70;99.90
5196;DHT22;2617;51.006;12.436;2022-12-18T18:11:08;-6.60;99.90
5196;DHT22;2617;51.006;12.436;2022-12-18T18:16:16;-6.60;99.90
5196;DHT22;2617;51.006;12.436;2022-12-18T18:21:18;-6.60;99.90
5196;DHT22;2617;51.006;12.436;2022-12-18T18:26:20;-6.60;99.90
5196;DHT22;2617;51.006;12.436;2022-12-18T18:31:21;-6.60;99.90
5196;DHT22;2617;51.006;12.436;2022-12-18T18:36:23;-6.60;99.90
5196;DHT22;2617;51.006;12.436;2022-12-18T18:41:25;-6.60;99.90
5196;DHT22;2617;51.006;12.436;2022-12-18T18:46:27;-6.50;99.90
5196;DHT22;2617;51.006;12.436;2022-12-18T18:51:29;-6.50;99.90
5196;DHT22;2617;51.006;12.436;2022-12-18T18:56:32;-6.30;99.90
5196;DHT22;2617;51.006;12.436;2022-12-18T19:01:33;-6.30;99.90
5196;DHT22;2617;51.006;12.436;2022-12-18T19:06:36;-6.20;99.90
5196;DHT22;2617;51.006;12.436;2022-12-18T19:11:38;-6.20;99.90
5196;DHT22;2617;51.006;12.436;2022-12-18T19:16:46;-6.20;99.90
5196;DHT22;2617;51.006;12.436;2022-12-18T19:21:47;-6.20;99.90
5196;DHT22;2617;51.006;12.436;2022-12-18T19:26:49;-6.20;99.90
5196;DHT22;2617;51.006;12.436;2022-12-18T19:31:51;-6.20;99.90
5196;DHT22;2617;51.006;12.436;2022-12-18T19:36:53;-6.20;99.90
5196;DHT22;2617;51.006;12.436;2022-12-18T19:41:54;-6.10;99.90
5196;DHT22;2617;51.006;12.436;2022-12-18T19:46:56;-6.00;99.90
5196;DHT22;2617;51.006;12.436;2022-12-18T19:51:58;-5.90;99.90
5196;DHT22;2617;51.006;12.436;2022-12-18T19:56:59;-5.90;99.90
5196;DHT22;2617;51.006;12.436;2022-12-18T20:02:01;-5.90;99.90
5196;DHT22;2617;51.006;12.436;2022-12-18T20:07:04;-5.90;99.90
5196;DHT22;2617;51.006;12.436;2022-12-18T20:12:06;-5.80;99.90
5196;DHT22;2617;51.006;12.436;2022-12-18T20:17:09;-5.80;99.90
5196;DHT22;2617;51.006;12.436;2022-12-18T20:22:11;-5.80;99.90
5196;DHT22;2617;51.006;12.436;2022-12-18T20:27:12;-5.80;99.90
5196;DHT22;2617;51.006;12.436;2022-12-18T20:32:14;-5.80;99.90
5196;DHT22;2617;51.006;12.436;2022-12-18T20:37:17;-5.70;99.90
5196;DHT22;2617;51.006;12.436;2022-12-18T20:42:18;-5.70;99.90
5196;DHT22;2617;51.006;12.436;2022-12-18T20:47:20;-5.70;99.90
5196;DHT22;2617;51.006;12.436;2022-12-18T20:52:22;-5.60;99.90
5196;DHT22;2617;51.006;12.436;2022-12-18T20:57:23;-5.60;99.90
5196;DHT22;2617;51.006;12.436;2022-12-18T21:02:26;-5.50;99.90
5196;DHT22;2617;51.006;12.436;2022-12-18T21:07:28;-5.60;99.90
5196;DHT22;2617;51.006;12.436;2022-12-18T21:12:30;-5.50;99.90
5196;DHT22;2617;51.006;12.436;2022-12-18T21:17:33;-5.50;99.90
5196;DHT22;2617;51.006;12.436;2022-12-18T21:22:35;-5.40;99.90
5196;DHT22;2617;51.006;12.436;2022-12-18T21:27:38;-5.40;99.90
5196;DHT22;2617;51.006;12.436;2022-12-18T21:32:40;-5.40;99.90
5196;DHT22;2617;51.006;12.436;2022-12-18T21:37:41;-5.30;99.90
5196;DHT22;2617;51.006;12.436;2022-12-18T21:42:43;-5.30;99.90
5196;DHT22;2617;51.006;12.436;2022-12-18T21:47:50;-5.20;99.90
5196;DHT22;2617;51.006;12.436;2022-12-18T21:52:52;-5.20;99.90
5196;DHT22;2617;51.006;12.436;2022-12-18T21:57:54;-5.00;99.90
5196;DHT22;2617;51.006;12.436;2022-12-18T22:02:56;-5.00;99.90
5196;DHT22;2617;51.006;12.436;2022-12-18T22:07:58;-5.00;99.90
5196;DHT22;2617;51.006;12.436;2022-12-18T22:13:00;-4.90;99.90
5196;DHT22;2617;51.006;12.436;2022-12-18T22:18:01;-4.80;99.90
5196;DHT22;2617;51.006;12.436;2022-12-18T22:23:03;-4.80;99.90
5196;DHT22;2617;51.006;12.436;2022-12-18T22:28:05;-4.80;99.90
5196;DHT22;2617;51.006;12.436;2022-12-18T22:33:12;-4.80;99.90
5196;DHT22;2617;51.006;12.436;2022-12-18T22:38:14;-4.70;99.90
5196;DHT22;2617;51.006;12.436;2022-12-18T22:43:16;-4.80;99.90
5196;DHT22;2617;51.006;12.436;2022-12-18T22:48:18;-4.80;99.90
5196;DHT22;2617;51.006;12.436;2022-12-18T22:53:20;-4.80;99.90
5196;DHT22;2617;51.006;12.436;2022-12-18T22:58:21;-4.80;99.90
5196;DHT22;2617;51.006;12.436;2022-12-18T23:03:23;-4.90;99.90
5196;DHT22;2617;51.006;12.436;2022-12-18T23:08:25;-4.90;99.90
5196;DHT22;2617;51.006;12.436;2022-12-18T23:13:27;-4.90;99.90
5196;DHT22;2617;51.006;12.436;2022-12-18T23:18:30;-4.80;99.90
5196;DHT22;2617;51.006;12.436;2022-12-18T23:23:32;-4.80;99.90
5196;DHT22;2617;51.006;12.436;2022-12-18T23:28:34;-4.70;99.90
5196;DHT22;2617;51.006;12.436;2022-12-18T23:33:36;-4.70;99.90
5196;DHT22;2617;51.006;12.436;2022-12-18T23:38:39;-4.70;99.90
5196;DHT22;2617;51.006;12.436;2022-12-18T23:43:41;-4.80;99.90
5196;DHT22;2617;51.006;12.436;2022-12-18T23:48:43;-4.80;99.90
5196;DHT22;2617;51.006;12.436;2022-12-18T23:53:45;-4.80;99.90
5196;DHT22;2617;51.006;12.436;2022-12-18T23:58:47;-4.80;99.90
